createdAt,value
2018-11-26T00:00:36.542Z,10.10
2018-11-26T00:03:08.913Z,10.20
2018-11-26T00:05:37.974Z,10.20
2018-11-26T00:08:07.459Z,10.00
2018-11-26T00:10:46.862Z,10.10
2018-11-26T00:13:14.996Z,10.10
2018-11-26T00:15:44.108Z,10.20
2018-11-26T00:18:12.270Z,10.60
2018-11-26T00:20:40.406Z,10.20
2018-11-26T00:23:08.541Z,10.10
2018-11-26T00:25:36.749Z,10.10
2018-11-26T00:28:05.086Z,10.20
2018-11-26T00:30:33.198Z,10.10
2018-11-26T00:33:01.315Z,10.20
2018-11-26T00:35:29.433Z,10.20
2018-11-26T00:37:57.848Z,10.20
2018-11-26T00:40:25.995Z,10.20
2018-11-26T00:42:54.132Z,10.10
2018-11-26T00:45:22.276Z,10.10
2018-11-26T00:47:50.448Z,10.10
2018-11-26T00:50:18.560Z,10.20
2018-11-26T00:52:46.700Z,10.20
2018-11-26T00:55:14.831Z,10.20
2018-11-26T00:57:42.988Z,10.20
2018-11-26T01:00:12.180Z,9.90
2018-11-26T01:02:40.340Z,10.00
2018-11-26T01:05:11.195Z,10.00
2018-11-26T01:07:39.352Z,10.10
2018-11-26T01:10:07.489Z,10.00
2018-11-26T01:12:36.051Z,9.90
2018-11-26T01:15:04.244Z,10.00
2018-11-26T01:17:32.396Z,10.00
2018-11-26T01:20:00.569Z,9.90
2018-11-26T01:22:28.687Z,9.90
2018-11-26T01:24:56.829Z,9.80
2018-11-26T01:27:25.005Z,9.60
2018-11-26T01:29:53.141Z,9.60
2018-11-26T01:32:21.310Z,9.60
2018-11-26T01:34:49.509Z,9.60
2018-11-26T01:37:17.807Z,9.70
2018-11-26T01:39:45.937Z,9.70
2018-11-26T01:42:14.430Z,9.60
2018-11-26T01:44:42.559Z,9.60
2018-11-26T01:47:10.678Z,9.70
2018-11-26T01:49:38.813Z,9.60
2018-11-26T01:52:06.980Z,9.70
2018-11-26T01:54:35.097Z,9.70
2018-11-26T01:57:03.407Z,9.70
2018-11-26T01:59:31.548Z,9.60
2018-11-26T02:01:59.728Z,9.80
2018-11-26T02:04:27.844Z,9.80
2018-11-26T02:06:56.035Z,9.70
2018-11-26T02:09:24.189Z,9.60
2018-11-26T02:11:52.310Z,9.60
2018-11-26T02:14:20.458Z,9.60
2018-11-26T02:16:48.603Z,9.80
2018-11-26T02:19:16.706Z,9.70
2018-11-26T02:21:44.945Z,9.70
2018-11-26T02:24:13.084Z,9.80
2018-11-26T02:26:41.211Z,9.80
2018-11-26T02:29:09.326Z,9.80
2018-11-26T02:31:37.446Z,9.80
2018-11-26T02:34:05.579Z,9.70
2018-11-26T02:36:33.706Z,9.70
2018-11-26T02:39:01.814Z,9.80
2018-11-26T02:41:29.957Z,9.60
2018-11-26T02:43:58.064Z,9.70
2018-11-26T02:46:26.265Z,9.70
2018-11-26T02:48:54.389Z,9.70
2018-11-26T02:51:22.518Z,9.80
2018-11-26T02:53:50.648Z,9.70
2018-11-26T02:56:18.803Z,9.80
2018-11-26T02:58:47.341Z,9.90
2018-11-26T03:01:15.727Z,9.90
2018-11-26T03:03:44.550Z,9.90
2018-11-26T03:06:12.725Z,9.90
2018-11-26T03:08:40.861Z,9.90
2018-11-26T03:11:09.024Z,9.90
2018-11-26T03:13:37.249Z,9.90
2018-11-26T03:16:05.938Z,9.90
2018-11-26T03:18:34.079Z,9.90
2018-11-26T03:21:03.270Z,9.90
2018-11-26T03:23:31.397Z,9.90
2018-11-26T03:25:59.843Z,9.90
2018-11-26T03:28:28.008Z,9.90
2018-11-26T03:30:56.154Z,9.70
2018-11-26T03:33:24.281Z,9.80
2018-11-26T03:35:52.781Z,9.70
2018-11-26T03:38:29.183Z,9.50
2018-11-26T03:40:57.414Z,9.60
2018-11-26T03:43:25.649Z,9.70
2018-11-26T03:45:53.812Z,9.70
2018-11-26T03:48:21.964Z,9.80
2018-11-26T03:50:50.107Z,9.70
2018-11-26T03:53:18.229Z,9.70
2018-11-26T03:55:46.353Z,9.70
2018-11-26T03:58:14.531Z,9.80
2018-11-26T04:00:42.682Z,9.80
2018-11-26T04:03:10.858Z,9.70
2018-11-26T04:05:39.014Z,9.80
2018-11-26T04:08:07.177Z,9.70
2018-11-26T04:10:35.300Z,9.80
2018-11-26T04:13:03.443Z,9.80
2018-11-26T04:15:31.573Z,9.80
2018-11-26T04:17:59.749Z,9.90
2018-11-26T04:20:27.891Z,9.90
2018-11-26T04:22:56.040Z,9.90
2018-11-26T04:25:24.148Z,10.00
2018-11-26T04:27:53.289Z,9.90
2018-11-26T04:30:21.454Z,9.90
2018-11-26T04:32:49.597Z,9.90
2018-11-26T04:35:17.704Z,9.90
2018-11-26T04:37:45.830Z,9.80
2018-11-26T04:40:14.014Z,9.80
2018-11-26T04:42:42.186Z,9.80
2018-11-26T04:45:10.610Z,9.80
2018-11-26T04:47:38.899Z,9.80
2018-11-26T04:50:08.954Z,9.90
2018-11-26T04:52:37.072Z,9.90
2018-11-26T04:55:05.312Z,9.80
2018-11-26T04:57:34.208Z,9.70
2018-11-26T05:00:02.056Z,9.70
2018-11-26T05:02:30.524Z,9.80
2018-11-26T05:04:58.669Z,9.80
2018-11-26T05:07:26.841Z,9.70
2018-11-26T05:09:55.037Z,9.70
2018-11-26T05:12:23.152Z,9.60
2018-11-26T05:14:51.295Z,9.60
2018-11-26T05:17:19.457Z,9.60
2018-11-26T05:19:47.625Z,9.70
2018-11-26T05:22:15.765Z,9.70
2018-11-26T05:24:44.828Z,9.60
2018-11-26T05:27:12.973Z,9.70
2018-11-26T05:29:41.123Z,9.60
2018-11-26T05:32:09.311Z,9.60
2018-11-26T05:34:37.459Z,9.60
2018-11-26T05:37:06.129Z,9.60
2018-11-26T05:39:34.500Z,9.40
2018-11-26T05:42:02.636Z,9.50
2018-11-26T05:44:30.904Z,9.60
2018-11-26T05:46:59.028Z,9.40
2018-11-26T05:49:27.133Z,9.40
2018-11-26T05:51:55.520Z,9.50
2018-11-26T05:54:23.632Z,9.40
2018-11-26T05:56:51.893Z,9.50
2018-11-26T05:59:20.861Z,9.50
2018-11-26T06:01:49.037Z,9.60
2018-11-26T06:04:17.170Z,9.50
2018-11-26T06:06:45.265Z,9.60
2018-11-26T06:09:13.401Z,9.70
2018-11-26T06:11:41.568Z,9.60
2018-11-26T06:14:09.719Z,9.60
2018-11-26T06:16:37.838Z,9.60
2018-11-26T06:19:06.090Z,9.70
2018-11-26T06:21:34.202Z,9.20
2018-11-26T06:24:02.373Z,9.30
2018-11-26T06:26:30.473Z,9.50
2018-11-26T06:28:58.589Z,9.70
2018-11-26T06:31:26.761Z,9.70
2018-11-26T06:33:55.444Z,9.70
2018-11-26T06:36:23.640Z,9.80
2018-11-26T06:38:51.756Z,9.80
2018-11-26T06:41:19.892Z,9.90
2018-11-26T06:43:48.018Z,9.90
2018-11-26T06:46:16.135Z,9.80
2018-11-26T06:48:45.372Z,9.90
2018-11-26T06:51:12.929Z,9.90
2018-11-26T06:53:41.054Z,10.00
2018-11-26T06:56:09.169Z,9.80
2018-11-26T06:58:37.354Z,9.80
2018-11-26T07:01:05.682Z,9.90
2018-11-26T07:03:33.800Z,10.00
2018-11-26T07:06:02.064Z,9.90
2018-11-26T07:08:30.513Z,9.00
2018-11-26T07:10:58.636Z,11.40
2018-11-26T07:13:26.765Z,9.90
2018-11-26T07:15:54.918Z,10.00
2018-11-26T07:18:23.088Z,10.10
2018-11-26T07:20:51.221Z,10.10
2018-11-26T07:23:19.353Z,10.20
2018-11-26T07:25:47.650Z,10.00
2018-11-26T07:28:15.881Z,10.10
2018-11-26T07:30:44.937Z,10.20
2018-11-26T07:33:13.077Z,10.20
2018-11-26T07:35:41.235Z,10.30
2018-11-26T07:38:09.370Z,10.30
2018-11-26T07:40:37.514Z,10.20
2018-11-26T07:43:09.156Z,10.20
2018-11-26T07:45:37.293Z,10.20
2018-11-26T07:48:06.329Z,10.30
2018-11-26T07:50:35.429Z,10.20
2018-11-26T07:53:04.221Z,10.30
2018-11-26T07:55:32.384Z,10.30
2018-11-26T07:58:00.508Z,10.40
2018-11-26T08:00:28.647Z,10.40
2018-11-26T08:02:56.784Z,10.30
2018-11-26T08:05:24.929Z,10.40
2018-11-26T08:07:53.088Z,10.40
2018-11-26T08:10:22.190Z,10.40
2018-11-26T08:12:51.490Z,10.30
2018-11-26T08:15:22.720Z,10.40
2018-11-26T08:17:50.845Z,10.60
2018-11-26T08:20:19.004Z,10.60
2018-11-26T08:22:47.164Z,10.50
2018-11-26T08:25:16.856Z,10.50
2018-11-26T08:27:46.001Z,10.50
2018-11-26T08:30:17.909Z,10.60
2018-11-26T08:32:48.129Z,10.60
2018-11-26T08:35:16.732Z,10.60
2018-11-26T08:37:50.449Z,10.40
2018-11-26T08:40:24.069Z,10.50
2018-11-26T08:43:56.571Z,10.70
2018-11-26T08:46:30.187Z,10.80
2018-11-26T08:49:02.228Z,10.40
2018-11-26T08:51:30.491Z,10.40
2018-11-26T08:53:58.614Z,10.50
2018-11-26T08:56:26.779Z,10.60
2018-11-26T08:58:54.840Z,10.70
2018-11-26T09:01:28.310Z,10.80
2018-11-26T09:03:56.459Z,10.90
2018-11-26T09:06:24.619Z,10.80
2018-11-26T09:08:52.959Z,10.90
2018-11-26T09:11:21.077Z,10.80
2018-11-26T09:13:49.219Z,10.80
2018-11-26T09:16:17.350Z,10.90
2018-11-26T09:18:45.466Z,11.00
2018-11-26T09:21:13.620Z,11.00
2018-11-26T09:23:41.742Z,11.00
2018-11-26T09:26:09.865Z,11.00
2018-11-26T09:28:37.990Z,11.00
2018-11-26T09:31:06.176Z,11.00
2018-11-26T09:33:34.289Z,11.00
2018-11-26T09:36:02.441Z,11.10
2018-11-26T09:38:30.540Z,11.10
2018-11-26T09:40:58.695Z,11.00
2018-11-26T09:43:26.801Z,11.20
2018-11-26T09:45:54.977Z,11.10
2018-11-26T09:48:23.129Z,11.20
2018-11-26T09:50:51.275Z,11.20
2018-11-26T09:53:19.373Z,11.30
2018-11-26T09:55:47.492Z,11.30
2018-11-26T09:58:15.609Z,11.40
2018-11-26T10:00:43.744Z,11.20
2018-11-26T10:03:11.909Z,11.30
2018-11-26T10:05:40.071Z,11.30
2018-11-26T10:08:08.235Z,11.20
2018-11-26T10:10:36.371Z,11.30
2018-11-26T10:13:04.513Z,11.40
2018-11-26T10:15:32.937Z,11.40
2018-11-26T10:18:01.104Z,11.50
2018-11-26T10:20:29.224Z,11.30
2018-11-26T10:22:57.338Z,11.30
2018-11-26T10:25:25.469Z,11.40
2018-11-26T10:27:53.596Z,11.40
2018-11-26T10:30:23.412Z,11.40
2018-11-26T10:32:51.811Z,11.40
2018-11-26T10:35:20.392Z,11.30
2018-11-26T10:37:48.544Z,11.30
2018-11-26T10:40:18.575Z,11.30
2018-11-26T10:42:46.716Z,11.40
2018-11-26T10:45:15.969Z,11.40
2018-11-26T10:47:44.104Z,11.40
2018-11-26T10:50:17.010Z,11.50
2018-11-26T10:52:48.707Z,11.60
2018-11-26T10:55:23.017Z,11.70
2018-11-26T10:57:51.140Z,11.80
2018-11-26T11:00:24.807Z,11.80
2018-11-26T11:02:53.152Z,11.90
2018-11-26T11:05:21.269Z,11.90
2018-11-26T11:07:49.412Z,11.90
2018-11-26T11:10:33.049Z,12.00
2018-11-26T11:13:01.197Z,12.20
2018-11-26T11:15:29.353Z,12.30
2018-11-26T11:17:57.472Z,12.20
2018-11-26T11:20:27.149Z,12.20
2018-11-26T11:22:55.317Z,12.30
2018-11-26T11:25:23.681Z,12.50
2018-11-26T11:27:51.987Z,12.70
2018-11-26T11:30:24.850Z,12.70
2018-11-26T11:32:53.411Z,12.60
2018-11-26T11:35:21.561Z,12.40
2018-11-26T11:37:50.494Z,12.20
2018-11-26T11:40:21.293Z,12.30
2018-11-26T11:42:49.607Z,12.40
2018-11-26T11:45:18.054Z,12.30
2018-11-26T11:47:46.174Z,12.40
2018-11-26T11:50:15.578Z,12.40
2018-11-26T11:52:43.755Z,12.50
2018-11-26T11:55:16.691Z,12.60
2018-11-26T11:57:45.478Z,12.80
2018-11-26T12:00:32.762Z,12.80
2018-11-26T12:03:01.895Z,12.90
2018-11-26T12:05:30.090Z,13.10
2018-11-26T12:07:58.287Z,13.30
2018-11-26T12:10:26.431Z,13.50
2018-11-26T12:12:54.600Z,13.50
2018-11-26T12:15:22.723Z,13.40
2018-11-26T12:17:50.861Z,13.30
2018-11-26T12:20:18.986Z,13.60
2018-11-26T12:22:47.133Z,13.90
2018-11-26T12:25:16.383Z,14.00
2018-11-26T12:27:45.435Z,13.80
2018-11-26T12:30:14.898Z,13.90
2018-11-26T12:32:43.022Z,13.80
2018-11-26T12:35:11.166Z,13.70
2018-11-26T12:37:39.301Z,13.70
2018-11-26T12:40:09.946Z,13.30
2018-11-26T12:42:38.130Z,13.10
2018-11-26T12:45:13.196Z,13.00
2018-11-26T12:47:41.353Z,12.90
2018-11-26T12:50:09.539Z,12.90
2018-11-26T12:52:37.937Z,12.80
2018-11-26T12:55:09.039Z,12.50
2018-11-26T12:57:38.192Z,12.30
2018-11-26T13:00:11.665Z,12.30
2018-11-26T13:02:39.920Z,12.30
2018-11-26T13:05:11.234Z,12.20
2018-11-26T13:07:39.364Z,12.10
2018-11-26T13:10:16.137Z,12.10
2018-11-26T13:12:44.678Z,12.20
2018-11-26T13:15:14.077Z,12.10
2018-11-26T13:17:42.223Z,12.10
2018-11-26T13:20:12.906Z,12.10
2018-11-26T13:22:41.124Z,12.20
2018-11-26T13:25:12.542Z,12.10
2018-11-26T13:27:42.129Z,12.10
2018-11-26T13:30:13.570Z,12.10
2018-11-26T13:32:41.956Z,12.00
2018-11-26T13:35:11.342Z,12.00
2018-11-26T13:37:39.455Z,12.10
2018-11-26T13:40:12.283Z,12.10
2018-11-26T13:42:40.568Z,11.90
2018-11-26T13:45:13.156Z,11.80
2018-11-26T13:47:41.559Z,11.90
2018-11-26T13:50:50.594Z,12.00
2018-11-26T13:53:18.732Z,12.00
2018-11-26T13:55:46.839Z,11.80
2018-11-26T13:58:14.938Z,11.80
2018-11-26T14:00:43.085Z,11.80
2018-11-26T14:03:11.258Z,11.80
2018-11-26T14:05:39.413Z,11.90
2018-11-26T14:08:07.564Z,11.90
2018-11-26T14:10:35.948Z,11.90
2018-11-26T14:13:11.114Z,11.90
2018-11-26T14:15:39.250Z,11.70
2018-11-26T14:18:07.382Z,11.70
2018-11-26T14:20:35.548Z,11.80
2018-11-26T14:23:03.729Z,11.70
2018-11-26T14:25:31.888Z,11.60
2018-11-26T14:28:00.027Z,11.60
2018-11-26T14:30:29.108Z,11.40
2018-11-26T14:32:57.374Z,11.50
2018-11-26T14:35:25.531Z,11.50
2018-11-26T14:37:57.733Z,11.40
2018-11-26T14:40:28.310Z,11.40
2018-11-26T14:42:56.453Z,11.30
2018-11-26T14:45:24.552Z,11.20
2018-11-26T14:47:52.765Z,11.30
2018-11-26T14:50:20.879Z,11.30
2018-11-26T14:52:49.836Z,11.30
2018-11-26T14:55:26.474Z,11.30
2018-11-26T14:57:54.610Z,11.40
2018-11-26T15:00:22.734Z,11.40
2018-11-26T15:02:51.279Z,11.40
2018-11-26T15:05:20.796Z,11.40
2018-11-26T15:07:49.767Z,11.30
2018-11-26T15:10:19.882Z,11.30
2018-11-26T15:12:48.200Z,11.30
2018-11-26T15:15:18.662Z,11.30
2018-11-26T15:17:46.837Z,11.10
2018-11-26T15:20:16.223Z,11.10
2018-11-26T15:22:44.369Z,11.10
2018-11-26T15:25:14.706Z,11.00
2018-11-26T15:27:42.951Z,11.10
2018-11-26T15:30:14.141Z,11.00
2018-11-26T15:32:42.279Z,11.00
2018-11-26T15:35:13.429Z,11.00
2018-11-26T15:37:41.689Z,10.90
2018-11-26T15:40:10.900Z,10.90
2018-11-26T15:42:39.103Z,10.80
2018-11-26T15:45:14.443Z,10.80
2018-11-26T15:47:42.615Z,10.80
2018-11-26T15:50:10.839Z,10.90
2018-11-26T15:52:38.992Z,10.80
2018-11-26T15:55:09.051Z,10.80
2018-11-26T15:57:37.171Z,10.80
2018-11-26T16:00:11.378Z,10.70
2018-11-26T16:02:39.510Z,10.70
2018-11-26T16:05:09.766Z,10.70
2018-11-26T16:07:38.001Z,10.80
2018-11-26T16:10:08.470Z,10.80
2018-11-26T16:12:36.602Z,10.80
2018-11-26T16:15:06.566Z,10.70
2018-11-26T16:17:34.747Z,10.70
2018-11-26T16:20:02.909Z,10.70
2018-11-26T16:22:31.039Z,10.70
2018-11-26T16:24:59.274Z,10.70
2018-11-26T16:27:27.384Z,10.70
2018-11-26T16:29:55.510Z,10.70
2018-11-26T16:32:23.697Z,10.50
2018-11-26T16:34:51.878Z,10.40
2018-11-26T16:37:20.027Z,10.40
2018-11-26T16:39:48.151Z,10.10
2018-11-26T16:42:16.282Z,10.40
2018-11-26T16:44:44.421Z,10.40
2018-11-26T16:47:12.549Z,10.40
2018-11-26T16:49:40.681Z,10.40
2018-11-26T16:52:08.822Z,10.50
2018-11-26T16:54:36.958Z,10.40
2018-11-26T16:57:05.509Z,10.40
2018-11-26T16:59:33.630Z,10.40
2018-11-26T17:02:01.774Z,10.30
2018-11-26T17:04:29.895Z,10.40
2018-11-26T17:06:58.006Z,10.30
2018-11-26T17:09:26.127Z,10.30
2018-11-26T17:11:54.273Z,10.40
2018-11-26T17:14:22.447Z,10.30
2018-11-26T17:16:50.516Z,10.40
2018-11-26T17:19:18.645Z,10.30
2018-11-26T17:21:47.693Z,10.30
2018-11-26T17:24:15.818Z,10.30
2018-11-26T17:26:43.965Z,10.30
2018-11-26T17:29:12.104Z,10.20
2018-11-26T17:31:40.215Z,10.20
2018-11-26T17:34:08.354Z,10.20
2018-11-26T17:36:36.506Z,10.30
2018-11-26T17:39:07.511Z,10.30
2018-11-26T17:41:35.630Z,10.20
2018-11-26T17:44:03.805Z,10.20
2018-11-26T17:46:31.977Z,10.30
2018-11-26T17:49:00.144Z,10.30
2018-11-26T17:51:28.271Z,10.30
2018-11-26T17:53:56.397Z,10.40
2018-11-26T17:56:24.626Z,10.30
2018-11-26T17:58:52.794Z,10.10
2018-11-26T18:01:27.940Z,10.10
2018-11-26T18:03:56.094Z,10.10
2018-11-26T18:06:24.247Z,10.10
2018-11-26T18:08:52.652Z,9.90
2018-11-26T18:11:20.787Z,10.00
2018-11-26T18:13:48.922Z,10.00
2018-11-26T18:16:17.056Z,9.90
2018-11-26T18:18:45.191Z,9.70
2018-11-26T18:21:13.334Z,9.70
2018-11-26T18:23:41.487Z,9.60
2018-11-26T18:26:09.631Z,9.80
2018-11-26T18:28:37.763Z,9.80
2018-11-26T18:31:06.602Z,9.80
2018-11-26T18:33:34.826Z,9.80
2018-11-26T18:36:03.022Z,9.80
2018-11-26T18:38:31.141Z,9.80
2018-11-26T18:40:59.295Z,9.70
2018-11-26T18:43:27.448Z,9.80
2018-11-26T18:45:55.591Z,9.80
2018-11-26T18:48:23.718Z,9.80
2018-11-26T18:50:51.864Z,9.80
2018-11-26T18:53:19.993Z,9.80
2018-11-26T18:55:48.169Z,9.90
2018-11-26T18:58:16.308Z,9.80
2018-11-26T19:00:47.082Z,9.70
2018-11-26T19:03:18.754Z,9.80
2018-11-26T19:05:49.038Z,9.80
2018-11-26T19:08:17.698Z,9.60
2018-11-26T19:10:46.373Z,9.50
2018-11-26T19:13:23.673Z,9.40
2018-11-26T19:15:53.951Z,9.50
2018-11-26T19:18:24.553Z,9.60
2018-11-26T19:20:53.032Z,9.70
2018-11-26T19:23:21.506Z,9.80
2018-11-26T19:25:50.942Z,9.80
2018-11-26T19:28:20.468Z,9.70
2018-11-26T19:30:48.073Z,9.70
2018-11-26T19:33:16.194Z,9.80
2018-11-26T19:35:44.332Z,9.70
2018-11-26T19:38:12.747Z,9.60
2018-11-26T19:40:41.066Z,9.70
2018-11-26T19:43:09.326Z,9.70
2018-11-26T19:45:37.856Z,9.60
2018-11-26T19:48:06.931Z,9.70
2018-11-26T19:50:35.186Z,9.80
2018-11-26T19:53:03.799Z,9.70
2018-11-26T19:55:31.926Z,9.80
2018-11-26T19:58:00.073Z,9.80
2018-11-26T20:00:29.283Z,9.80
2018-11-26T20:03:18.475Z,9.80
2018-11-26T20:05:59.583Z,9.70
2018-11-26T20:08:27.695Z,9.60
2018-11-26T20:10:56.849Z,9.60
2018-11-26T20:13:24.950Z,9.60
2018-11-26T20:15:53.758Z,9.70
2018-11-26T20:18:21.886Z,9.80
2018-11-26T20:20:50.013Z,9.70
2018-11-26T20:23:18.143Z,9.60
2018-11-26T20:25:46.309Z,9.70
2018-11-26T20:28:14.526Z,9.70
2018-11-26T20:30:42.611Z,9.70
2018-11-26T20:33:10.814Z,9.70
2018-11-26T20:35:38.974Z,9.70
2018-11-26T20:38:08.406Z,9.60
2018-11-26T20:40:36.526Z,9.50
2018-11-26T20:43:06.616Z,9.50
2018-11-26T20:45:34.761Z,9.60
2018-11-26T20:48:03.079Z,9.70
2018-11-26T20:50:31.360Z,9.60
2018-11-26T20:52:59.566Z,9.60
2018-11-26T20:55:27.709Z,9.70
2018-11-26T20:57:56.469Z,9.50
2018-11-26T21:00:25.973Z,9.50
2018-11-26T21:02:55.326Z,9.50
2018-11-26T21:05:23.438Z,9.60
2018-11-26T21:07:51.558Z,9.60
2018-11-26T21:10:19.663Z,9.60
2018-11-26T21:12:48.476Z,9.60
2018-11-26T21:15:17.847Z,9.60
2018-11-26T21:17:47.811Z,9.70
2018-11-26T21:20:18.603Z,9.60
2018-11-26T21:22:47.026Z,9.50
2018-11-26T21:25:16.218Z,9.60
2018-11-26T21:27:44.465Z,9.50
2018-11-26T21:30:13.926Z,9.50
2018-11-26T21:32:42.058Z,9.50
2018-11-26T21:35:11.187Z,9.50
2018-11-26T21:37:40.184Z,9.50
2018-11-26T21:40:09.773Z,9.60
2018-11-26T21:42:37.987Z,9.60
2018-11-26T21:45:16.954Z,9.50
2018-11-26T21:47:45.071Z,9.50
2018-11-26T21:50:14.099Z,9.50
2018-11-26T21:52:42.563Z,9.50
2018-11-26T21:55:12.950Z,9.50
2018-11-26T21:57:41.214Z,9.30
2018-11-26T22:00:16.473Z,9.40
2018-11-26T22:02:44.631Z,9.50
2018-11-26T22:05:12.756Z,9.40
2018-11-26T22:07:40.938Z,9.40
2018-11-26T22:10:10.922Z,9.30
2018-11-26T22:12:39.390Z,9.30
2018-11-26T22:15:10.166Z,9.40
2018-11-26T22:17:38.993Z,9.40
2018-11-26T22:20:13.134Z,9.50
2018-11-26T22:22:41.404Z,9.50
2018-11-26T22:25:10.923Z,9.50
2018-11-26T22:27:39.430Z,9.50
2018-11-26T22:30:16.972Z,9.50
2018-11-26T22:32:45.285Z,9.50
2018-11-26T22:35:13.424Z,9.50
2018-11-26T22:37:41.545Z,9.60
2018-11-26T22:40:11.937Z,9.60
2018-11-26T22:42:40.391Z,9.60
2018-11-26T22:45:17.241Z,9.50
2018-11-26T22:47:48.155Z,9.50
2018-11-26T22:50:16.379Z,9.50
2018-11-26T22:52:44.551Z,9.50
2018-11-26T22:55:13.522Z,9.60
2018-11-26T22:57:42.296Z,9.60
2018-11-26T23:00:16.802Z,9.60
2018-11-26T23:02:44.918Z,9.50
2018-11-26T23:05:13.042Z,9.50
2018-11-26T23:07:41.190Z,9.50
2018-11-26T23:10:09.611Z,9.50
2018-11-26T23:12:37.719Z,9.40
2018-11-26T23:15:08.924Z,9.40
2018-11-26T23:17:37.047Z,9.40
2018-11-26T23:20:07.923Z,9.30
2018-11-26T23:22:36.054Z,9.40
2018-11-26T23:25:04.402Z,9.40
2018-11-26T23:27:32.589Z,9.30
2018-11-26T23:30:00.695Z,9.30
2018-11-26T23:32:28.810Z,9.40
2018-11-26T23:34:56.936Z,9.40
2018-11-26T23:37:25.067Z,9.30
2018-11-26T23:39:53.178Z,9.30
2018-11-26T23:42:21.283Z,9.20
2018-11-26T23:44:49.402Z,9.10
2018-11-26T23:47:17.803Z,9.10
2018-11-26T23:49:45.681Z,9.00
2018-11-26T23:52:13.848Z,9.00
2018-11-26T23:54:42.010Z,9.10
2018-11-26T23:57:10.167Z,9.00
2018-11-26T23:59:38.331Z,8.90
